Time;durP1;ratioP1;P1;durP2;ratioP2;P2;SDS_P1;SDS_P2;PMS_P1;PMS_P2;Temp;Humidity;BMP_temperature;BMP_pressure;BME280_temperature;BME280_humidity;BME280_pressure;Samples;Min_cycle;Max_cycle;Signal;HPM_P1;HPM_P2
2023/02/18 00:00:04;;;;;;;13.27;10.60;;;;;;;10.05;100.00;101458.41;692965;28;1314;-61
2023/02/18 00:00:26;;;;;;;12.98;10.52;;;;;;;10.04;100.00;101459.28;694230;28;1296;-64
2023/02/18 00:00:47;;;;;;;12.02;9.88;;;;;;;9.98;100.00;101460.09;692325;28;4333;-62
2023/02/18 00:01:09;;;;;;;13.43;10.43;;;;;;;10.00;100.00;101460.09;694451;28;1430;-62
2023/02/18 00:01:30;;;;;;;14.23;11.15;;;;;;;9.99;100.00;101461.81;695526;28;1289;-62
2023/02/18 00:01:51;;;;;;;14.15;10.65;;;;;;;10.00;100.00;101460.09;694579;28;1281;-62
2023/02/18 00:02:11;;;;;;;13.20;10.83;;;;;;;10.04;100.00;101467.13;697130;28;1450;-61
2023/02/18 00:02:32;;;;;;;12.57;10.00;;;;;;;10.06;100.00;101460.16;697200;28;1093;-60
2023/02/18 00:02:54;;;;;;;13.13;10.38;;;;;;;10.12;100.00;101460.22;695875;28;1088;-61
2023/02/18 00:03:15;;;;;;;12.35;10.32;;;;;;;10.21;100.00;101462.91;697323;28;1296;-61
2023/02/18 00:03:35;;;;;;;13.53;10.77;;;;;;;10.16;100.00;101458.50;695999;28;1119;-61
2023/02/18 00:03:57;;;;;;;13.20;10.60;;;;;;;10.14;100.00;101468.09;694146;28;4358;-61
2023/02/18 00:04:17;;;;;;;12.73;10.18;;;;;;;10.14;100.00;101453.28;689958;28;1325;-61
2023/02/18 00:04:38;;;;;;;12.70;10.00;;;;;;;10.13;100.00;101458.47;686484;28;1096;-60
2023/02/18 00:04:58;;;;;;;13.35;10.75;;;;;;;10.15;100.00;101462.88;686775;28;1163;-62
2023/02/18 00:05:19;;;;;;;13.30;10.93;;;;;;;10.15;100.00;101468.09;683120;28;1248;-61
2023/02/18 00:05:39;;;;;;;12.80;10.37;;;;;;;10.13;100.00;101461.97;683798;28;1101;-59
2023/02/18 00:05:59;;;;;;;12.85;10.35;;;;;;;10.13;100.00;101461.09;683925;28;2193;-61
2023/02/18 00:06:21;;;;;;;13.23;10.23;;;;;;;10.11;100.00;101463.69;692473;28;1382;-62
2023/02/18 00:06:41;;;;;;;13.13;10.18;;;;;;;10.18;100.00;101464.63;693948;28;4364;-58
2023/02/18 00:07:02;;;;;;;12.63;10.40;;;;;;;10.21;100.00;101467.28;690198;28;3504;-61
2023/02/18 00:07:22;;;;;;;12.48;10.18;;;;;;;10.15;100.00;101456.75;693333;28;1322;-61
2023/02/18 00:07:43;;;;;;;12.20;10.33;;;;;;;10.09;100.00;101464.53;693047;28;2183;-60
2023/02/18 00:08:04;;;;;;;13.05;10.93;;;;;;;10.05;100.00;101463.63;692820;28;1240;-62
2023/02/18 00:08:25;;;;;;;13.20;10.87;;;;;;;10.11;100.00;101455.88;691763;28;2029;-61
2023/02/18 00:08:47;;;;;;;12.48;10.68;;;;;;;10.13;100.00;101455.88;693315;28;1204;-61
2023/02/18 00:09:08;;;;;;;13.52;10.73;;;;;;;10.11;100.00;101462.84;690976;28;1627;-61
2023/02/18 00:09:28;;;;;;;13.38;11.07;;;;;;;10.07;100.00;101464.53;686272;28;1298;-62
2023/02/18 00:09:49;;;;;;;13.48;10.57;;;;;;;10.08;100.00;101458.44;687295;28;4371;-62
2023/02/18 00:10:14;;;;;;;13.37;10.40;;;;;;;10.05;100.00;101463.63;689540;28;1251;-62
2023/02/18 00:10:35;;;;;;;12.93;10.23;;;;;;;10.14;100.00;101463.72;688811;28;1246;-61
2023/02/18 00:10:55;;;;;;;13.15;10.60;;;;;;;10.14;100.00;101481.16;690867;28;1258;-61
2023/02/18 00:11:17;;;;;;;13.23;10.50;;;;;;;10.21;100.00;101465.53;695139;28;1585;-62
2023/02/18 00:11:38;;;;;;;12.93;10.50;;;;;;;10.17;100.00;101455.91;693649;28;1120;-61
2023/02/18 00:11:58;;;;;;;12.93;11.02;;;;;;;10.10;100.00;101463.69;695555;28;1186;-62
2023/02/18 00:12:18;;;;;;;13.90;10.80;;;;;;;10.08;100.00;101458.44;694254;28;1281;-63
2023/02/18 00:12:39;;;;;;;13.68;10.48;;;;;;;10.06;100.00;101460.16;694712;28;5468;-60
2023/02/18 00:13:00;;;;;;;14.80;10.30;;;;;;;10.05;100.00;101455.78;693763;28;1245;-61
2023/02/18 00:13:20;;;;;;;14.30;10.57;;;;;;;10.02;100.00;101459.28;693063;28;1214;-62
2023/02/18 00:13:41;;;;;;;13.60;10.80;;;;;;;10.02;100.00;101451.44;694404;28;1083;-62
2023/02/18 00:14:05;;;;;;;13.55;11.00;;;;;;;10.00;100.00;101460.09;694751;28;1257;-62
2023/02/18 00:14:25;;;;;;;12.85;10.50;;;;;;;10.12;100.00;101456.72;691715;28;1313;-60
2023/02/18 00:14:45;;;;;;;14.60;10.90;;;;;;;10.15;100.00;101451.53;692370;28;1406;-60
2023/02/18 00:15:06;;;;;;;14.18;10.80;;;;;;;10.19;100.00;101462.03;692629;28;1329;-62
2023/02/18 00:15:27;;;;;;;12.93;10.73;;;;;;;10.20;100.00;101458.56;689065;28;1324;-60
2023/02/18 00:15:47;;;;;;;13.00;10.27;;;;;;;10.17;100.00;101457.66;689621;28;4452;-62
2023/02/18 00:16:10;;;;;;;13.45;10.48;;;;;;;10.16;100.00;101455.91;690515;28;1287;-62
2023/02/18 00:16:31;;;;;;;13.00;10.60;;;;;;;10.15;100.00;101457.66;695062;28;1401;-62
2023/02/18 00:16:51;;;;;;;13.98;10.75;;;;;;;10.12;100.00;101460.22;694904;28;1914;-62
2023/02/18 00:17:12;;;;;;;12.97;10.47;;;;;;;10.13;100.00;101454.13;694349;28;1408;-62
2023/02/18 00:17:32;;;;;;;12.77;10.57;;;;;;;10.13;100.00;101454.13;696083;28;1384;-62
2023/02/18 00:17:52;;;;;;;14.85;11.10;;;;;;;10.13;100.00;101461.97;697187;28;1300;-62
2023/02/18 00:18:13;;;;;;;14.50;10.47;;;;;;;10.13;100.00;101459.34;696637;28;1452;-62
2023/02/18 00:18:33;;;;;;;14.30;10.60;;;;;;;10.14;100.00;101452.41;694876;28;1507;-59
2023/02/18 00:18:59;;;;;;;14.47;10.50;;;;;;;10.15;100.00;101454.13;694825;28;4502;-61
2023/02/18 00:19:20;;;;;;;13.48;10.88;;;;;;;10.14;100.00;101448.03;693583;28;1230;-61
2023/02/18 00:19:40;;;;;;;13.38;11.23;;;;;;;10.11;100.00;101458.47;694243;28;1175;-62
2023/02/18 00:20:01;;;;;;;13.93;11.23;;;;;;;10.08;100.00;101453.22;694011;28;3763;-62
2023/02/18 00:20:21;;;;;;;14.73;11.03;;;;;;;10.17;100.00;101455.91;693207;28;1281;-61
2023/02/18 00:20:41;;;;;;;14.27;11.00;;;;;;;10.14;100.00;101447.19;694608;28;1111;-62
2023/02/18 00:21:04;;;;;;;12.88;10.75;;;;;;;10.11;100.00;101455.88;694273;28;1274;-62
2023/02/18 00:21:25;;;;;;;13.90;11.23;;;;;;;10.11;100.00;101455.00;693311;28;1200;-61
2023/02/18 00:21:46;;;;;;;13.82;11.10;;;;;;;10.03;100.00;101454.91;693092;28;4438;-61
2023/02/18 00:22:07;;;;;;;14.73;11.45;;;;;;;10.03;100.00;101447.94;694380;28;1234;-61
2023/02/18 00:22:27;;;;;;;13.57;11.13;;;;;;;10.02;100.00;101447.91;694456;28;1253;-62
2023/02/18 00:22:47;;;;;;;13.43;10.57;;;;;;;10.08;100.00;101445.38;695074;28;1273;-62
2023/02/18 00:23:08;;;;;;;13.30;10.80;;;;;;;10.03;100.00;101447.06;693700;28;1238;-60
2023/02/18 00:23:28;;;;;;;13.13;10.98;;;;;;;9.98;100.00;101448.75;695049;28;1261;-62
2023/02/18 00:23:51;;;;;;;14.23;11.10;;;;;;;9.97;100.00;101445.28;694769;28;1254;-62
2023/02/18 00:24:16;;;;;;;14.40;11.20;;;;;;;9.95;100.00;101449.59;694140;28;1392;-61
2023/02/18 00:24:38;;;;;;;13.73;10.57;;;;;;;9.97;100.00;101445.28;694847;28;1423;-60
2023/02/18 00:24:58;;;;;;;14.43;11.23;;;;;;;9.98;100.00;101446.13;693630;28;4776;-61
2023/02/18 00:25:18;;;;;;;13.30;10.88;;;;;;;9.96;100.00;101445.25;692406;28;1335;-62
2023/02/18 00:25:39;;;;;;;13.03;10.63;;;;;;;10.05;100.00;101447.94;692771;28;1546;-61
2023/02/18 00:26:07;;;;;;;12.77;10.73;;;;;;;10.10;100.00;101451.50;692788;28;1226;-59
2023/02/18 00:26:28;;;;;;;13.88;10.55;;;;;;;10.10;100.00;101451.50;692834;28;1400;-61
2023/02/18 00:26:51;;;;;;;14.80;11.00;;;;;;;10.18;100.00;101448.97;693613;28;1270;-62
2023/02/18 00:27:11;;;;;;;14.27;10.73;;;;;;;10.12;100.00;101448.88;694576;28;1424;-60
2023/02/18 00:27:31;;;;;;;12.70;10.80;;;;;;;10.11;100.00;101458.47;694798;28;1510;-61
2023/02/18 00:27:52;;;;;;;13.77;10.95;;;;;;;10.04;100.00;101451.44;694299;28;4384;-61
2023/02/18 00:28:12;;;;;;;14.87;11.27;;;;;;;9.96;100.00;101447.88;694337;28;1574;-61
2023/02/18 00:28:33;;;;;;;13.60;10.90;;;;;;;9.98;100.00;101452.25;693317;28;1508;-62
2023/02/18 00:28:54;;;;;;;14.05;11.48;;;;;;;10.00;100.00;101437.47;692433;28;1296;-59
2023/02/18 00:29:14;;;;;;;13.67;11.17;;;;;;;10.00;100.00;101450.53;693512;28;1313;-62
2023/02/18 00:29:35;;;;;;;12.65;10.63;;;;;;;10.05;100.00;101450.56;692426;28;1166;-62
2023/02/18 00:29:57;;;;;;;13.93;11.02;;;;;;;10.02;100.00;101447.91;691990;28;1372;-62
2023/02/18 00:30:19;;;;;;;13.43;10.95;;;;;;;10.00;100.00;101449.66;692863;28;1226;-62
2023/02/18 00:30:42;;;;;;;13.00;10.20;;;;;;;10.01;100.00;101451.38;692417;28;4344;-61
2023/02/18 00:31:13;;;;;;;13.50;10.48;;;;;;;10.08;100.00;101447.09;695188;28;1277;-61
2023/02/18 00:31:36;;;;;;;14.05;11.23;;;;;;;10.04;100.00;101441.00;694869;28;1213;-61
2023/02/18 00:31:56;;;;;;;13.35;11.63;;;;;;;10.01;100.00;101443.56;693860;28;1250;-62
2023/02/18 00:32:16;;;;;;;14.20;11.33;;;;;;;10.02;100.00;101446.22;691643;28;1287;-62
2023/02/18 00:32:37;;;;;;;16.52;11.35;;;;;;;10.05;100.00;101443.63;690251;28;1274;-63
2023/02/18 00:32:57;;;;;;;15.63;11.13;;;;;;;10.10;100.00;101443.66;687481;28;1289;-60
2023/02/18 00:33:18;;;;;;;14.13;10.70;;;;;;;10.20;100.00;101447.22;688681;28;1368;-60
2023/02/18 00:33:39;;;;;;;14.10;11.23;;;;;;;10.14;100.00;101444.56;688622;28;1071;-62
2023/02/18 00:34:00;;;;;;;14.27;11.40;;;;;;;10.10;100.00;101443.66;688603;28;4589;-62
2023/02/18 00:34:21;;;;;;;14.05;11.02;;;;;;;10.03;100.00;101445.31;693185;28;1241;-64
2023/02/18 00:34:41;;;;;;;14.50;10.67;;;;;;;9.99;100.00;101442.69;693756;28;1488;-62
2023/02/18 00:35:02;;;;;;;13.90;11.20;;;;;;;9.95;100.00;101436.53;691209;28;1210;-61
2023/02/18 00:35:22;;;;;;;15.15;11.43;;;;;;;9.99;100.00;101435.69;692594;28;1301;-61
2023/02/18 00:35:43;;;;;;;15.77;11.60;;;;;;;9.99;100.00;101434.84;691410;28;1143;-62
2023/02/18 00:36:06;;;;;;;14.87;11.77;;;;;;;9.95;100.00;101430.44;690289;28;1368;-60
2023/02/18 00:36:28;;;;;;;14.57;11.52;;;;;;;10.01;100.00;101430.50;691190;28;1376;-61
2023/02/18 00:36:48;;;;;;;14.05;10.82;;;;;;;10.02;100.00;101430.53;691292;28;4526;-61
2023/02/18 00:37:08;;;;;;;13.77;11.13;;;;;;;9.98;100.00;101431.38;690433;28;1337;-62
2023/02/18 00:37:29;;;;;;;13.83;10.97;;;;;;;9.95;100.00;101440.88;690343;28;1166;-62
2023/02/18 00:37:52;;;;;;;14.13;11.00;;;;;;;9.92;100.00;101433.91;690759;28;1254;-62
2023/02/18 00:38:12;;;;;;;14.82;11.25;;;;;;;9.91;100.00;101431.28;692415;28;1274;-61
2023/02/18 00:38:33;;;;;;;15.38;11.77;;;;;;;9.98;100.00;101430.47;692128;28;1245;-61
2023/02/18 00:38:56;;;;;;;14.93;11.73;;;;;;;10.00;100.00;101428.75;691952;28;5139;-61
2023/02/18 00:39:17;;;;;;;15.07;11.45;;;;;;;9.95;100.00;101430.44;691245;28;1265;-62
2023/02/18 00:39:37;;;;;;;14.07;11.30;;;;;;;9.96;100.00;101430.44;691423;28;1816;-60
2023/02/18 00:39:57;;;;;;;14.93;11.30;;;;;;;9.93;100.00;101424.31;690290;28;4287;-62
2023/02/18 00:40:19;;;;;;;14.47;11.00;;;;;;;9.89;100.00;101428.66;692489;28;1237;-61
2023/02/18 00:40:40;;;;;;;15.80;11.32;;;;;;;9.98;100.00;101425.25;691483;28;1130;-61
2023/02/18 00:41:02;;;;;;;16.05;11.32;;;;;;;10.02;100.00;101417.47;691740;28;1289;-62
2023/02/18 00:41:24;;;;;;;15.40;11.68;;;;;;;10.02;100.00;101417.47;691542;28;1218;-62
2023/02/18 00:41:45;;;;;;;14.15;11.25;;;;;;;9.98;100.00;101420.00;692854;28;1408;-62
2023/02/18 00:42:05;;;;;;;14.50;11.00;;;;;;;9.96;100.00;101412.16;691650;28;1131;-62
2023/02/18 00:42:26;;;;;;;14.40;11.23;;;;;;;9.97;100.00;101413.03;692927;28;1174;-60
2023/02/18 00:42:47;;;;;;;14.52;11.70;;;;;;;9.97;100.00;101413.03;692760;28;4314;-62
2023/02/18 00:43:09;;;;;;;14.88;11.82;;;;;;;9.94;100.00;101413.00;690244;28;1305;-62
2023/02/18 00:43:30;;;;;;;14.05;11.40;;;;;;;9.98;100.00;101415.69;690421;28;1460;-60
2023/02/18 00:43:50;;;;;;;14.02;11.30;;;;;;;10.04;100.00;101412.25;689868;28;1309;-61
2023/02/18 00:44:13;;;;;;;14.05;11.63;;;;;;;9.98;100.00;101415.69;690434;28;1589;-61
2023/02/18 00:44:33;;;;;;;13.55;11.10;;;;;;;9.94;100.00;101419.13;691557;28;1523;-61
2023/02/18 00:44:53;;;;;;;13.83;11.20;;;;;;;9.91;100.00;101421.69;692891;28;1281;-62
2023/02/18 00:45:15;;;;;;;14.90;11.68;;;;;;;9.86;100.00;101413.81;694913;28;1384;-62
2023/02/18 00:45:35;;;;;;;14.85;11.35;;;;;;;9.97;100.00;101418.25;694829;28;1140;-59
2023/02/18 00:45:57;;;;;;;14.05;10.38;;;;;;;9.94;100.00;101428.69;694046;28;4292;-60
2023/02/18 00:46:17;;;;;;;14.63;11.43;;;;;;;9.92;100.00;101420.84;691768;28;1254;-62
2023/02/18 00:46:38;;;;;;;14.75;11.90;;;;;;;9.93;100.00;101426.91;693166;28;1129;-60
2023/02/18 00:47:00;;;;;;;15.13;11.82;;;;;;;9.99;100.00;101413.94;691774;28;1381;-62
2023/02/18 00:47:20;;;;;;;14.53;11.07;;;;;;;9.95;100.00;101412.16;690874;28;1307;-63
2023/02/18 00:47:41;;;;;;;15.15;11.18;;;;;;;9.88;100.00;101419.94;689381;28;1150;-62
2023/02/18 00:48:01;;;;;;;14.52;11.73;;;;;;;9.91;100.00;101418.22;691736;28;1233;-60
2023/02/18 00:48:22;;;;;;;15.87;12.73;;;;;;;9.86;100.00;101421.66;692575;28;1296;-62
2023/02/18 00:48:43;;;;;;;15.43;12.27;;;;;;;9.83;100.00;101420.72;688555;28;4442;-62
2023/02/18 00:49:04;;;;;;;15.30;11.63;;;;;;;9.88;100.00;101417.34;690047;28;1301;-63
2023/02/18 00:49:24;;;;;;;15.00;11.73;;;;;;;10.06;100.00;101418.34;692478;28;1145;-60
2023/02/18 00:49:45;;;;;;;14.87;12.17;;;;;;;9.95;100.00;101415.63;693522;28;1225;-62
2023/02/18 00:50:06;;;;;;;15.07;12.10;;;;;;;9.89;100.00;101419.06;692886;28;1377;-60
2023/02/18 00:50:27;;;;;;;15.98;12.70;;;;;;;9.85;100.00;101413.81;689769;28;1262;-61
2023/02/18 00:50:47;;;;;;;15.52;12.55;;;;;;;9.83;100.00;101423.34;691886;28;1214;-62
2023/02/18 00:51:08;;;;;;;16.67;12.13;;;;;;;9.95;100.00;101418.25;692126;28;1401;-61
2023/02/18 00:51:28;;;;;;;16.00;12.05;;;;;;;9.92;100.00;101418.22;692307;28;1376;-61
2023/02/18 00:51:49;;;;;;;16.23;13.13;;;;;;;9.91;100.00;101424.31;691814;28;4535;-59
2023/02/18 00:52:09;;;;;;;16.08;13.00;;;;;;;9.92;100.00;101425.19;689933;28;1262;-61
2023/02/18 00:52:29;;;;;;;16.43;13.00;;;;;;;9.96;100.00;101426.97;693430;28;1499;-61
2023/02/18 00:52:50;;;;;;;15.77;12.43;;;;;;;9.89;100.00;101418.19;692309;28;1697;-62
2023/02/18 00:53:10;;;;;;;16.17;12.63;;;;;;;9.89;100.00;101415.59;691293;28;1404;-61
2023/02/18 00:53:31;;;;;;;15.63;12.20;;;;;;;9.86;100.00;101420.78;690710;28;1606;-62
2023/02/18 00:53:52;;;;;;;15.10;11.60;;;;;;;9.91;100.00;101413.00;689663;28;1235;-61
2023/02/18 00:54:12;;;;;;;16.08;11.98;;;;;;;9.89;100.00;101415.59;689650;28;1531;-62
2023/02/18 00:54:33;;;;;;;15.87;11.87;;;;;;;9.85;100.00;101419.03;691600;28;1331;-61
2023/02/18 00:54:53;;;;;;;15.60;12.55;;;;;;;9.87;100.00;101418.19;689466;28;4557;-62
2023/02/18 00:55:14;;;;;;;15.33;12.33;;;;;;;9.86;100.00;101418.19;695302;28;1332;-60
2023/02/18 00:55:39;;;;;;;15.83;12.40;;;;;;;9.81;100.00;101412.88;696752;28;1134;-61
2023/02/18 00:56:00;;;;;;;15.10;12.13;;;;;;;9.84;100.00;101415.56;695971;28;1170;-61
2023/02/18 00:56:20;;;;;;;17.13;12.48;;;;;;;9.95;100.00;101412.16;693920;28;1077;-61
2023/02/18 00:56:41;;;;;;;16.83;11.98;;;;;;;9.95;100.00;101417.38;690752;28;1385;-61
2023/02/18 00:57:01;;;;;;;14.57;11.53;;;;;;;9.97;100.00;101418.25;690993;28;1914;-62
2023/02/18 00:57:22;;;;;;;15.73;12.18;;;;;;;10.03;100.00;101418.34;691574;28;1240;-60
2023/02/18 00:57:43;;;;;;;15.73;12.33;;;;;;;9.97;100.00;101415.66;690336;28;4615;-62
2023/02/18 00:58:03;;;;;;;15.40;12.13;;;;;;;9.97;100.00;101407.81;689420;28;1609;-58
2023/02/18 00:58:23;;;;;;;16.73;12.60;;;;;;;9.95;100.00;101410.41;691981;28;1254;-59
2023/02/18 00:58:44;;;;;;;15.77;11.65;;;;;;;9.94;100.00;101413.91;692362;28;1347;-61
2023/02/18 00:59:04;;;;;;;14.17;11.50;;;;;;;9.91;100.00;101416.47;691553;28;1985;-61
2023/02/18 00:59:25;;;;;;;14.90;11.63;;;;;;;9.85;100.00;101417.28;692163;28;1203;-62
2023/02/18 00:59:45;;;;;;;14.83;11.70;;;;;;;9.83;100.00;101419.00;690442;28;1246;-59
2023/02/18 01:00:07;;;;;;;16.03;11.57;;;;;;;9.80;100.00;101421.59;689573;28;1417;-61
2023/02/18 01:00:27;;;;;;;15.82;11.55;;;;;;;9.79;100.00;101418.94;690328;28;1136;-60
2023/02/18 01:00:48;;;;;;;14.77;11.80;;;;;;;9.79;100.00;101419.84;689126;28;4487;-62
2023/02/18 01:01:10;;;;;;;15.10;11.45;;;;;;;9.77;100.00;101423.28;689714;28;1361;-61
2023/02/18 01:01:30;;;;;;;14.93;11.45;;;;;;;9.77;100.00;101412.84;692514;28;1373;-61
2023/02/18 01:01:50;;;;;;;15.03;11.27;;;;;;;9.82;100.00;101417.25;692409;28;1285;-63
2023/02/18 01:02:11;;;;;;;14.20;11.47;;;;;;;9.89;100.00;101413.84;692286;28;1337;-59
2023/02/18 01:02:32;;;;;;;15.55;11.90;;;;;;;9.86;100.00;101413.81;693435;28;1400;-60
2023/02/18 01:02:53;;;;;;;15.70;11.57;;;;;;;9.91;100.00;101415.59;692531;28;1452;-61
2023/02/18 01:03:15;;;;;;;15.70;11.52;;;;;;;9.91;100.00;101419.06;690128;28;1665;-63
2023/02/18 01:03:37;;;;;;;15.70;11.10;;;;;;;9.90;100.00;101414.72;691577;28;1150;-60
2023/02/18 01:03:57;;;;;;;14.57;11.32;;;;;;;9.87;100.00;101417.28;690826;28;4477;-66
2023/02/18 01:04:18;;;;;;;14.93;11.55;;;;;;;9.86;100.00;101420.78;690808;28;1206;-64
2023/02/18 01:04:38;;;;;;;14.37;10.87;;;;;;;9.90;100.00;101406.91;691088;28;1518;-62
2023/02/18 01:04:58;;;;;;;15.30;11.73;;;;;;;9.93;100.00;101416.47;692080;28;1297;-63
2023/02/18 01:05:20;;;;;;;16.15;12.45;;;;;;;9.96;100.00;101416.53;691771;28;1174;-61
2023/02/18 01:05:41;;;;;;;14.90;11.55;;;;;;;9.91;100.00;101413.84;689412;28;1295;-62
2023/02/18 01:06:02;;;;;;;16.10;11.63;;;;;;;10.00;100.00;101413.09;689426;28;1310;-62
2023/02/18 01:06:23;;;;;;;16.42;12.20;;;;;;;9.97;100.00;101410.41;690068;28;1086;-62
2023/02/18 01:06:43;;;;;;;15.70;11.97;;;;;;;9.97;100.00;101408.69;691595;28;4596;-60
2023/02/18 01:07:03;;;;;;;14.65;11.82;;;;;;;9.93;100.00;101411.25;692608;28;1121;-61
2023/02/18 01:07:24;;;;;;;16.70;12.30;;;;;;;9.93;100.00;101413.88;692577;28;1187;-61
2023/02/18 01:07:44;;;;;;;17.60;12.35;;;;;;;9.91;100.00;101410.38;694930;28;1274;-62
2023/02/18 01:08:06;;;;;;;18.23;12.53;;;;;;;9.96;100.00;101408.69;694160;28;1204;-63
2023/02/18 01:08:27;;;;;;;16.63;12.15;;;;;;;9.93;100.00;101406.91;694642;28;1364;-62
2023/02/18 01:08:48;;;;;;;15.63;11.95;;;;;;;9.96;100.00;101406.94;694777;28;1282;-60
2023/02/18 01:09:09;;;;;;;15.38;11.65;;;;;;;9.93;100.00;101401.69;692012;28;1242;-62
2023/02/18 01:09:29;;;;;;;15.05;11.73;;;;;;;9.99;100.00;101400.88;692102;28;1441;-62
2023/02/18 01:09:50;;;;;;;14.63;11.47;;;;;;;9.96;100.00;101406.09;690551;28;4294;-62
2023/02/18 01:10:10;;;;;;;15.70;11.60;;;;;;;9.94;100.00;101403.47;692903;28;1468;-62
2023/02/18 01:10:31;;;;;;;15.48;11.68;;;;;;;9.91;100.00;101397.31;692278;28;1293;-61
2023/02/18 01:10:55;;;;;;;15.00;11.55;;;;;;;10.06;100.00;101402.69;692713;28;1456;-62
2023/02/18 01:11:15;;;;;;;14.77;11.48;;;;;;;10.01;100.00;101401.75;692547;28;1028;-62
2023/02/18 01:11:36;;;;;;;13.68;10.95;;;;;;;9.94;100.00;101408.69;691380;28;1146;-67
2023/02/18 01:11:56;;;;;;;14.83;11.20;;;;;;;9.97;100.00;101402.59;686085;28;1362;-61
2023/02/18 01:12:16;;;;;;;15.70;11.77;;;;;;;9.98;100.00;101402.63;687274;28;1172;-61
2023/02/18 01:12:37;;;;;;;14.87;11.93;;;;;;;9.93;100.00;101406.91;688730;28;1146;-62
2023/02/18 01:12:57;;;;;;;14.93;11.50;;;;;;;9.89;100.00;101410.38;685971;28;4707;-61
2023/02/18 01:13:18;;;;;;;13.70;10.63;;;;;;;9.86;100.00;101405.13;686737;28;1395;-61
2023/02/18 01:13:39;;;;;;;15.03;11.17;;;;;;;9.94;100.00;101407.78;685998;28;1247;-64
2023/02/18 01:14:00;;;;;;;15.65;11.27;;;;;;;9.88;100.00;101413.81;691481;28;1468;-60
2023/02/18 01:14:23;;;;;;;13.68;10.48;;;;;;;9.91;100.00;101407.75;689953;28;1314;-66
2023/02/18 01:14:43;;;;;;;13.25;9.70;;;;;;;9.85;100.00;101414.66;689378;28;1934;-63
2023/02/18 01:15:06;;;;;;;14.43;11.10;;;;;;;9.82;100.00;101406.81;689582;28;1313;-62
2023/02/18 01:15:26;;;;;;;14.35;11.15;;;;;;;9.89;100.00;101402.53;689163;28;1231;-62
2023/02/18 01:15:47;;;;;;;14.07;11.00;;;;;;;9.91;100.00;101407.75;687966;28;4573;-60
2023/02/18 01:16:08;;;;;;;14.32;11.18;;;;;;;9.93;100.00;101404.31;689131;28;1294;-61
2023/02/18 01:16:29;;;;;;;15.00;11.07;;;;;;;9.98;100.00;101396.50;686539;28;3591;-60
2023/02/18 01:16:49;;;;;;;14.75;11.15;;;;;;;9.97;100.00;101402.59;688671;28;1915;-60
2023/02/18 01:17:09;;;;;;;16.13;11.40;;;;;;;9.95;100.00;101401.72;686930;28;1373;-62
2023/02/18 01:17:30;;;;;;;15.88;11.68;;;;;;;9.92;100.00;101399.94;687105;28;1488;-60
2023/02/18 01:17:50;;;;;;;14.80;11.30;;;;;;;9.89;100.00;101398.16;686951;28;1287;-63
2023/02/18 01:18:12;;;;;;;13.70;10.80;;;;;;;9.86;100.00;101398.16;688931;28;1417;-61
2023/02/18 01:18:33;;;;;;;15.68;10.98;;;;;;;9.87;100.00;101399.00;690159;28;1437;-61
2023/02/18 01:18:53;;;;;;;14.97;11.27;;;;;;;9.85;100.00;101400.75;690733;28;4479;-62
2023/02/18 01:19:13;;;;;;;13.57;10.98;;;;;;;9.91;100.00;101397.31;695526;28;1444;-62
2023/02/18 01:19:34;;;;;;;13.10;10.57;;;;;;;9.94;100.00;101399.94;693661;28;903;-62
2023/02/18 01:19:54;;;;;;;14.85;10.93;;;;;;;9.92;100.00;101399.94;691081;28;1095;-61
2023/02/18 01:20:15;;;;;;;16.10;11.07;;;;;;;9.88;100.00;101390.31;689582;28;1399;-62
2023/02/18 01:20:37;;;;;;;14.80;10.73;;;;;;;9.88;100.00;101400.78;686587;28;1263;-62
2023/02/18 01:20:58;;;;;;;15.15;11.40;;;;;;;9.91;100.00;101395.56;686976;28;1200;-61
2023/02/18 01:21:18;;;;;;;15.27;11.50;;;;;;;9.97;100.00;101390.41;687701;28;1172;-60
2023/02/18 01:21:39;;;;;;;14.87;11.43;;;;;;;9.94;100.00;101398.22;688361;28;4555;-61
2023/02/18 01:21:59;;;;;;;14.40;11.57;;;;;;;9.92;100.00;101392.09;685881;28;1227;-62
2023/02/18 01:22:20;;;;;;;15.13;11.77;;;;;;;9.92;100.00;101391.25;688609;28;1211;-61
2023/02/18 01:22:40;;;;;;;14.48;11.30;;;;;;;9.97;100.00;101392.13;692050;28;1298;-60
2023/02/18 01:23:01;;;;;;;13.87;10.67;;;;;;;9.92;100.00;101401.69;692022;28;1332;-62
2023/02/18 01:23:22;;;;;;;13.40;10.20;;;;;;;9.94;100.00;101392.13;689733;28;1258;-62
2023/02/18 01:23:43;;;;;;;14.30;10.60;;;;;;;9.87;100.00;101397.28;690329;28;1131;-61
2023/02/18 01:24:04;;;;;;;15.23;11.40;;;;;;;9.89;100.00;101394.69;689499;28;1369;-62
2023/02/18 01:24:24;;;;;;;15.02;11.20;;;;;;;9.89;100.00;101394.69;685015;28;1331;-61
2023/02/18 01:24:45;;;;;;;15.93;11.63;;;;;;;9.93;100.00;101390.34;685781;28;5311;-61
2023/02/18 01:25:06;;;;;;;14.77;11.20;;;;;;;9.85;100.00;101391.16;685504;28;893;-60
2023/02/18 01:25:27;;;;;;;13.95;10.55;;;;;;;9.82;100.00;101383.31;688965;28;1290;-61
2023/02/18 01:25:47;;;;;;;15.03;11.07;;;;;;;9.82;100.00;101393.75;688987;28;1259;-60
2023/02/18 01:26:09;;;;;;;13.88;10.70;;;;;;;9.84;100.00;101396.38;692285;28;1319;-59
2023/02/18 01:26:31;;;;;;;14.18;11.27;;;;;;;9.89;100.00;101392.94;691246;28;1461;-60
2023/02/18 01:26:51;;;;;;;14.15;11.27;;;;;;;9.88;100.00;101398.16;692896;28;1349;-61
2023/02/18 01:27:12;;;;;;;14.13;11.13;;;;;;;9.89;100.00;101399.91;693180;28;1457;-61
2023/02/18 01:27:35;;;;;;;14.32;10.38;;;;;;;9.96;100.00;101395.63;692722;28;1234;-60
2023/02/18 01:27:56;;;;;;;15.30;10.43;;;;;;;9.99;100.00;101393.03;689563;28;4284;-61
2023/02/18 01:28:17;;;;;;;14.83;10.70;;;;;;;9.93;100.00;101391.25;689767;28;1436;-60
2023/02/18 01:28:39;;;;;;;14.02;11.05;;;;;;;9.94;100.00;101393.00;689708;28;1170;-62
2023/02/18 01:29:00;;;;;;;14.48;11.07;;;;;;;9.92;100.00;101394.72;687578;28;1505;-61
2023/02/18 01:29:20;;;;;;;15.23;10.57;;;;;;;10.00;100.00;101392.19;687763;28;1252;-61
2023/02/18 01:29:41;;;;;;;15.27;10.27;;;;;;;9.97;100.00;101395.66;687143;28;1213;-60
2023/02/18 01:30:04;;;;;;;13.55;10.35;;;;;;;9.92;100.00;101393.84;685161;28;1347;-59
2023/02/18 01:30:24;;;;;;;13.45;10.65;;;;;;;9.92;100.00;101389.50;685009;28;1303;-61
2023/02/18 01:30:45;;;;;;;13.68;10.85;;;;;;;9.88;100.00;101388.59;687384;28;4407;-62
2023/02/18 01:31:07;;;;;;;13.60;10.50;;;;;;;9.88;100.00;101379.88;691042;28;1472;-60
2023/02/18 01:31:30;;;;;;;13.48;10.05;;;;;;;9.84;100.00;101396.38;691735;28;1529;-62
2023/02/18 01:31:52;;;;;;;14.48;10.35;;;;;;;9.98;100.00;101383.44;694346;28;1089;-61
2023/02/18 01:32:13;;;;;;;13.13;10.33;;;;;;;10.02;100.00;101382.63;694272;28;1392;-61
2023/02/18 01:32:34;;;;;;;13.10;10.15;;;;;;;10.03;100.00;101369.56;691315;28;1162;-60
2023/02/18 01:32:56;;;;;;;12.60;9.50;;;;;;;10.01;100.00;101380.84;692145;28;1202;-60
2023/02/18 01:33:18;;;;;;;12.68;9.55;;;;;;;9.99;100.00;101377.38;693486;28;2138;-61
2023/02/18 01:33:39;;;;;;;13.25;9.93;;;;;;;9.95;100.00;101386.03;694409;28;1169;-62
2023/02/18 01:33:59;;;;;;;14.43;10.55;;;;;;;9.89;100.00;101381.63;691446;28;4793;-61
2023/02/18 01:34:22;;;;;;;13.73;10.57;;;;;;;9.82;100.00;101382.44;691179;28;1459;-62
2023/02/18 01:34:44;;;;;;;14.35;10.05;;;;;;;9.85;100.00;101385.06;690096;28;1190;-62
2023/02/18 01:35:05;;;;;;;13.07;9.70;;;;;;;9.80;100.00;101382.44;689977;28;1483;-62
2023/02/18 01:35:26;;;;;;;13.35;9.90;;;;;;;9.86;100.00;101384.22;686088;28;1895;-61
2023/02/18 01:35:48;;;;;;;14.07;10.40;;;;;;;9.82;100.00;101390.28;688505;28;1508;-62
2023/02/18 01:36:10;;;;;;;12.90;9.95;;;;;;;9.77;100.00;101389.34;690943;28;1238;-60
2023/02/18 01:36:30;;;;;;;13.55;9.70;;;;;;;9.75;100.00;101384.13;692336;28;1332;-61
2023/02/18 01:36:51;;;;;;;13.15;9.77;;;;;;;9.81;100.00;101391.13;692738;28;4396;-61
2023/02/18 01:37:12;;;;;;;13.47;10.27;;;;;;;9.77;100.00;101390.22;694071;28;1343;-61